Terminal Aerodrome Forecast
Issued by NWS Jackson, MS

Home | Current Version | Previous Version | Text Only | Print | Product List | Glossary On
Versions: 1 2 3 4 5 6 7 8 9 10 11 12 13 14
000
FTUS44 KJAN 292043 AAA
TAFGLH
TAF AMD
KGLH 292043Z 2921/3018 15006KT 5SM -TSRA BR BKN050CB OVC110
     FM300400 12009KT P6SM VCTS SCT020 BKN040CB
     FM301000 16010G20KT 6SM -TSRA BKN020 BKN050CB
     FM301200 16012KT 4SM -RA HZ BR OVC025
     FM301500 16014KT 4SM -SHRA OVC025=

USA.gov is the U.S. government's official web portal to all federal, state and local government web resources and services.